INFORMACIÓN METAR y TAF
METAR FOR LEVX
ADDS - METARS form results

(0346 UTC 19 January 2022)
Data provider http://aviationweather.gov/metar/data/
 
METAR text: LEVX 190330Z 22004KT 190V280 9999 2000SE BCFG NSC 07/05 Q1030 NOSIG
Conditions at: LEVX (VIGO/PEINADOR , ES) observed 0330 UTC 19 January 2022
Temperature: 7.0°C (45°F)
Dewpoint: 5.0°C (41°F) [RH = 87%]
Pressure (altimeter): 30.41 inches Hg (1030.0 mb)
Winds: from the SW (220 degrees) at 5 MPH (4 knots; 2.1 m/s)
Visibility: 6 or more miles (10+ km)
Ceiling: at least 12,000 feet AGL
Clouds: sky clear below 12,000 feet AGL
Weather: BCFG  (patches of fog)

METAR text: LEVX 190300Z VRB02KT 9999 3000SE BCFG NSC 07/05 Q1030 NOSIG
Conditions at: LEVX (VIGO/PEINADOR , ES) observed 0300 UTC 19 January 2022
Temperature: 7.0°C (45°F)
Dewpoint: 5.0°C (41°F) [RH = 87%]
Pressure (altimeter): 30.41 inches Hg (1030.0 mb)
Winds: variable direction winds at 2 MPH (2 knots; 1.0 m/s)
Visibility: 6 or more miles (10+ km)
Ceiling: at least 12,000 feet AGL
Clouds: sky clear below 12,000 feet AGL
Weather: BCFG  (patches of fog)

Forecast for: AMD
Text: TAF AMD LEVX 182357Z 1900/1924 VRB05KT CAVOK TX15/1914Z TN03/1906Z
Forecast period: 0000 UTC 19 January 2022 to 0000 UTC 20 January 2022
Forecast type: FROM: standard forecast or significant change
Winds: variable direction winds at 6 MPH (5 knots; 2.6 m/s)
Visibility: 6 or more miles (10+ km)
Ceiling: unknown
Clouds: missing
Weather: no significant weather forecast for this period
Text: TEMPO 1900/1909 3000 BR BCFG
Forecast period: 0000 to 0900 UTC 19 January 2022
Forecast type: TEMPORARY: The following changes expected for less than half the time period
Visibility: 1.86 miles (2.99 km)
Ceiling: unknown
Clouds: missing
Weather: BR BCFG  (mist, patches of fog)
Text: TEMPO 1900/1909 0800 BCFG
Forecast period: 0000 to 0900 UTC 19 January 2022
Forecast type: TEMPORARY: The following changes expected for less than half the time period
Visibility: 0.50 miles (0.80 km)
Ceiling: unknown
Clouds: missing
Weather: BCFG  (patches of fog)
Text: PROB40
Forecast period: 0000 to 0800 UTC 19 January 2022
Forecast type: TEMPORARY: The following changes expected for less than half the time period
Visibility: 0.22 miles (0.35 km)
Ceiling: unknown
Clouds: missing
Weather: BCFG  (patches of fog)

 MAPA DE AEROPUERTO

 INFORMACIÓN DE PISTA
Pista 02 Longitud 7874 ft Ancho 148 ft
Elevación 855 ft Umbral desplazado 0 ft Rumbo de pista 11
Pista 20 Longitud 7874 ft Ancho 148 ft
Elevación 829 ft Umbral desplazado 0 ft Rumbo de pista 191

 FRECUANCIAS DEL AEROPUERTO
Tipo APP Nombre SANTIAGO A Frecuencia 120.2 MHZ
Tipo GND Nombre GND Frecuencia 121.7 MHZ
Tipo TWR Nombre TWR Frecuencia 118.45 MHZ

 RADIO AYUDAS DEL AEROPUERTO
Tipo VOR-DME Nombre Vigo Frecuencia 113600 KHZ
Tipo NDB Nombre Vigo Frecuencia 345 KHZ
Tipo NDB Nombre Vigo Frecuencia 433 KHZ



Powered by Virtual Airlines Manager [v2.6.2]